Time;durP1;ratioP1;P1;durP2;ratioP2;P2;SDS_P1;SDS_P2;PMS_P1;PMS_P2;Temp;Humidity;BMP_temperature;BMP_pressure;BME280_temperature;BME280_humidity;BME280_pressure;Samples;Min_cycle;Max_cycle;Signal;HPM_P1;HPM_P2
2022/04/20 00:01:18;;;;;;;16.02;14.05;;;;;;;;;;765967;77;26180;-71
2022/04/20 00:02:21;;;;;;;17.50;14.45;;;;;;;;;;765797;77;26320;-71
2022/04/20 00:03:24;;;;;;;17.55;15.55;;;;;;;;;;765901;77;26312;-71
2022/04/20 00:04:27;;;;;;;17.85;15.80;;;;;;;;;;766245;77;26267;-70
2022/04/20 00:05:33;;;;;;;20.88;15.98;;;;;;;;;;766315;77;26279;-72
2022/04/20 00:06:36;;;;;;;20.30;16.52;;;;;;;;;;766501;77;26254;-71
2022/04/20 00:11:08;;;;;;;18.17;15.38;;;;;;;;;;766780;77;26217;-71
2022/04/20 00:12:11;;;;;;;17.95;15.28;;;;;;;;;;766251;77;26377;-72
2022/04/20 00:13:14;;;;;;;19.12;16.73;;;;;;;;;;765685;77;26325;-71
2022/04/20 00:14:18;;;;;;;20.82;17.12;;;;;;;;;;765163;77;26688;-72
2022/04/20 00:15:21;;;;;;;20.77;16.15;;;;;;;;;;765617;77;26267;-71
2022/04/20 00:16:24;;;;;;;21.17;17.73;;;;;;;;;;765598;77;26259;-71
2022/04/20 00:19:30;;;;;;;21.70;16.50;;;;;;;;;;765971;77;26219;-71
2022/04/20 00:20:33;;;;;;;18.50;16.10;;;;;;;;;;765635;77;26321;-71
2022/04/20 00:21:36;;;;;;;20.50;16.48;;;;;;;;;;765600;77;26259;-71
2022/04/20 00:22:39;;;;;;;22.30;16.17;;;;;;;;;;765704;77;26359;-74
2022/04/20 00:23:42;;;;;;;21.37;16.25;;;;;;;;;;765692;77;26262;-72
2022/04/20 00:24:45;;;;;;;21.87;17.30;;;;;;;;;;765693;77;26258;-72
2022/04/20 00:25:47;;;;;;;20.30;17.00;;;;;;;;;;765960;77;26266;-71
2022/04/20 00:26:50;;;;;;;18.73;15.98;;;;;;;;;;766531;77;26259;-71
2022/04/20 00:29:33;;;;;;;22.52;16.50;;;;;;;;;;779497;76;26233;-71
2022/04/20 00:30:36;;;;;;;20.02;16.65;;;;;;;;;;779384;76;26714;-70
2022/04/20 00:31:39;;;;;;;19.85;16.12;;;;;;;;;;779369;76;26753;-71
2022/04/20 00:32:42;;;;;;;19.55;16.05;;;;;;;;;;779489;76;26683;-72
2022/04/20 00:33:45;;;;;;;19.80;17.10;;;;;;;;;;779364;76;26310;-71
2022/04/20 00:34:48;;;;;;;21.05;15.50;;;;;;;;;;779393;76;26249;-73
2022/04/20 00:35:50;;;;;;;18.25;16.30;;;;;;;;;;779487;76;26760;-71
2022/04/20 00:36:55;;;;;;;20.10;16.40;;;;;;;;;;779570;76;26245;-71
2022/04/20 00:46:39;;;;;;;18.65;15.10;;;;;;;;;;736489;80;26230;-71
2022/04/20 00:52:56;;;;;;;18.00;15.43;;;;;;;;;;753918;78;26658;-72
2022/04/20 00:54:01;;;;;;;16.70;14.47;;;;;;;;;;752725;78;26281;-72
2022/04/20 00:55:06;;;;;;;16.42;14.75;;;;;;;;;;753919;78;26277;-71
2022/04/20 00:56:08;;;;;;;16.37;14.68;;;;;;;;;;753469;78;26277;-71
2022/04/20 00:59:26;;;;;;;16.23;13.98;;;;;;;;;;754674;78;26305;-71
2022/04/20 01:00:30;;;;;;;16.95;14.15;;;;;;;;;;755066;78;26269;-72
2022/04/20 01:01:32;;;;;;;18.05;14.75;;;;;;;;;;755087;78;26253;-71
2022/04/20 01:02:35;;;;;;;18.48;16.15;;;;;;;;;;754947;78;26277;-71
2022/04/20 01:03:38;;;;;;;17.23;15.10;;;;;;;;;;754917;78;26279;-71
2022/04/20 01:04:41;;;;;;;17.65;15.55;;;;;;;;;;755159;78;26278;-71
2022/04/20 01:05:45;;;;;;;20.23;15.25;;;;;;;;;;754735;78;26699;-71
2022/04/20 01:06:53;;;;;;;18.07;16.17;;;;;;;;;;754333;78;26347;-72
2022/04/20 01:11:33;;;;;;;16.95;15.15;;;;;;;;;;753887;78;26194;-71
2022/04/20 01:12:36;;;;;;;19.10;16.10;;;;;;;;;;753810;78;26274;-71
2022/04/20 01:13:39;;;;;;;18.85;15.70;;;;;;;;;;753837;78;26277;-71
2022/04/20 01:14:42;;;;;;;23.07;17.12;;;;;;;;;;753915;78;26273;-71
2022/04/20 01:15:45;;;;;;;18.45;15.85;;;;;;;;;;753873;78;26324;-71
2022/04/20 01:19:03;;;;;;;18.45;15.68;;;;;;;;;;754250;78;26171;-72
2022/04/20 01:20:15;;;;;;;18.20;15.60;;;;;;;;;;753943;78;26741;-71
2022/04/20 01:21:18;;;;;;;16.93;14.87;;;;;;;;;;753944;78;26362;-71
2022/04/20 01:22:22;;;;;;;17.77;15.78;;;;;;;;;;754622;78;26355;-71
2022/04/20 01:23:25;;;;;;;18.87;16.87;;;;;;;;;;755176;78;26311;-71
2022/04/20 01:24:28;;;;;;;20.95;16.90;;;;;;;;;;755122;78;26270;-70
2022/04/20 01:25:31;;;;;;;21.75;16.73;;;;;;;;;;755285;78;26242;-71
2022/04/20 01:26:35;;;;;;;19.57;16.00;;;;;;;;;;754664;78;26266;-72
2022/04/20 01:29:53;;;;;;;20.40;16.20;;;;;;;;;;754147;78;26264;-71
2022/04/20 01:30:56;;;;;;;18.37;15.68;;;;;;;;;;753985;78;26281;-73
2022/04/20 01:31:59;;;;;;;19.00;16.23;;;;;;;;;;753883;78;26332;-72
2022/04/20 01:39:55;;;;;;;18.65;16.65;;;;;;;;;;776502;76;26226;-71
2022/04/20 01:40:58;;;;;;;19.57;16.93;;;;;;;;;;776532;76;26230;-70
2022/04/20 01:42:01;;;;;;;21.00;16.35;;;;;;;;;;776553;76;26249;-69
2022/04/20 01:43:04;;;;;;;21.68;16.97;;;;;;;;;;776570;76;26280;-70
2022/04/20 01:44:07;;;;;;;22.35;17.52;;;;;;;;;;776590;76;26241;-71
2022/04/20 01:45:09;;;;;;;21.25;17.90;;;;;;;;;;776644;76;26287;-72
2022/04/20 01:46:12;;;;;;;21.57;16.73;;;;;;;;;;776762;76;26356;-70
2022/04/20 01:49:31;;;;;;;19.07;16.42;;;;;;;;;;776861;76;26166;-71
2022/04/20 01:51:46;;;;;;;19.57;16.55;;;;;;;;;;761412;78;26302;-71
2022/04/20 01:51:50;;;;;;;20.23;16.35;;;;;;;;;;761909;77;26383;-71
2022/04/20 01:52:52;;;;;;;21.30;16.42;;;;;;;;;;761083;78;26252;-70
2022/04/20 01:53:55;;;;;;;19.42;16.10;;;;;;;;;;761049;78;26248;-72
2022/04/20 01:54:58;;;;;;;19.15;16.23;;;;;;;;;;761096;78;26690;-70
2022/04/20 01:56:03;;;;;;;19.52;15.60;;;;;;;;;;761194;78;26248;-71
2022/04/20 02:00:35;;;;;;;18.55;14.98;;;;;;;;;;764033;77;26606;-71
2022/04/20 02:02:58;;;;;;;18.00;15.72;;;;;;;;;;764288;77;26260;-71
2022/04/20 02:04:01;;;;;;;18.12;15.68;;;;;;;;;;765165;77;26239;-71
2022/04/20 02:05:05;;;;;;;21.07;16.45;;;;;;;;;;765078;77;26235;-71
2022/04/20 02:06:11;;;;;;;19.65;15.13;;;;;;;;;;765199;77;26247;-71
2022/04/20 02:10:52;;;;;;;17.90;15.20;;;;;;;;;;795847;74;26162;-71
2022/04/20 02:11:55;;;;;;;17.87;16.05;;;;;;;;;;795840;74;26283;-71
2022/04/20 02:12:58;;;;;;;21.57;16.42;;;;;;;;;;795854;74;26217;-74
2022/04/20 02:14:01;;;;;;;18.52;15.68;;;;;;;;;;795903;74;26673;-71
2022/04/20 02:20:29;;;;;;;15.55;13.65;;;;;;;;;;768338;77;26251;-70
2022/04/20 02:21:32;;;;;;;19.00;15.38;;;;;;;;;;768344;77;26232;-72
2022/04/20 02:22:35;;;;;;;17.60;15.10;;;;;;;;;;768372;77;26722;-71
2022/04/20 02:23:38;;;;;;;16.82;14.68;;;;;;;;;;768332;77;26244;-70
2022/04/20 02:24:41;;;;;;;14.50;12.90;;;;;;;;;;768292;77;26329;-71
2022/04/20 02:25:44;;;;;;;15.10;13.20;;;;;;;;;;768280;77;26329;-70
2022/04/20 02:32:22;;;;;;;14.95;12.68;;;;;;;;;;769978;77;26275;-72
2022/04/20 02:33:24;;;;;;;13.08;11.65;;;;;;;;;;756421;78;26262;-71
2022/04/20 02:34:27;;;;;;;16.37;12.65;;;;;;;;;;756627;78;26223;-72
2022/04/20 02:35:31;;;;;;;15.25;12.23;;;;;;;;;;756638;78;26251;-72
2022/04/20 02:36:34;;;;;;;17.30;12.35;;;;;;;;;;756706;78;26255;-71
2022/04/20 02:39:46;;;;;;;13.65;11.73;;;;;;;;;;765686;77;26348;-71
2022/04/20 02:40:50;;;;;;;13.80;12.40;;;;;;;;;;765415;77;26256;-70
2022/04/20 02:41:53;;;;;;;13.70;11.63;;;;;;;;;;765995;77;26324;-71
2022/04/20 02:42:57;;;;;;;14.75;12.15;;;;;;;;;;766741;77;26388;-70
2022/04/20 02:44:00;;;;;;;14.25;11.68;;;;;;;;;;766740;77;26256;-72
2022/04/20 02:45:03;;;;;;;13.40;11.90;;;;;;;;;;766730;77;24308;-71
2022/04/20 02:46:06;;;;;;;13.98;12.30;;;;;;;;;;766700;77;26304;-73
2022/04/20 02:50:50;;;;;;;15.65;12.05;;;;;;;;;;760930;78;26145;-71
2022/04/20 02:51:54;;;;;;;13.50;11.85;;;;;;;;;;760638;78;26223;-72
2022/04/20 02:52:57;;;;;;;15.65;11.80;;;;;;;;;;760408;78;26227;-71
2022/04/20 02:54:00;;;;;;;14.00;12.15;;;;;;;;;;760257;78;26270;-71
2022/04/20 02:55:04;;;;;;;13.20;11.80;;;;;;;;;;760233;78;26318;-70
2022/04/20 02:56:06;;;;;;;15.43;13.20;;;;;;;;;;760294;78;26215;-70
2022/04/20 02:59:25;;;;;;;11.38;10.25;;;;;;;;;;760459;78;26149;-71
2022/04/20 03:00:28;;;;;;;12.82;11.22;;;;;;;;;;737916;80;26286;-70
2022/04/20 03:01:30;;;;;;;15.30;12.20;;;;;;;;;;779832;76;26244;-70
2022/04/20 03:09:16;;;;;;;13.32;11.75;;;;;;;;;;774832;76;26258;-71
2022/04/20 03:10:22;;;;;;;13.25;11.50;;;;;;;;;;796076;74;26193;-71
2022/04/20 03:11:25;;;;;;;19.70;13.48;;;;;;;;;;796073;74;26195;-72
2022/04/20 03:12:27;;;;;;;13.38;11.97;;;;;;;;;;796142;74;26354;-71
2022/04/20 03:13:30;;;;;;;13.35;12.03;;;;;;;;;;796130;74;26197;-71
2022/04/20 03:14:33;;;;;;;15.90;12.50;;;;;;;;;;796062;74;26199;-71
2022/04/20 03:15:39;;;;;;;15.28;13.15;;;;;;;;;;796143;74;26199;-72
2022/04/20 03:18:58;;;;;;;14.60;11.48;;;;;;;;;;796440;74;26194;-71
2022/04/20 03:20:04;;;;;;;15.32;13.40;;;;;;;;;;779208;76;26245;-70
2022/04/20 03:21:11;;;;;;;14.50;12.40;;;;;;;;;;779181;76;26295;-71
2022/04/20 03:22:14;;;;;;;14.75;12.47;;;;;;;;;;779105;76;26390;-70
2022/04/20 03:23:38;;;;;;;15.55;12.90;;;;;;;;;;779210;76;26346;-72
2022/04/20 03:25:04;;;;;;;14.13;12.37;;;;;;;;;;796892;74;26196;-72
2022/04/20 03:26:08;;;;;;;13.60;12.20;;;;;;;;;;779215;76;26249;-71
2022/04/20 03:31:05;;;;;;;16.65;11.28;;;;;;;;;;779239;76;24612;-71
2022/04/20 03:32:12;;;;;;;13.40;12.00;;;;;;;;;;779149;76;26245;-70
2022/04/20 03:33:15;;;;;;;13.55;12.15;;;;;;;;;;779253;76;26703;-71
2022/04/20 03:34:18;;;;;;;13.70;11.73;;;;;;;;;;760640;78;26238;-71
2022/04/20 03:35:21;;;;;;;14.05;12.00;;;;;;;;;;760735;78;26296;-72
2022/04/20 03:39:54;;;;;;;14.83;12.70;;;;;;;;;;761957;78;26229;-73
2022/04/20 03:40:57;;;;;;;17.27;13.88;;;;;;;;;;761966;78;26238;-71
2022/04/20 03:42:00;;;;;;;18.30;14.18;;;;;;;;;;761878;78;26239;-73
2022/04/20 03:43:03;;;;;;;17.35;13.62;;;;;;;;;;760960;78;26234;-72
2022/04/20 03:44:06;;;;;;;16.15;13.13;;;;;;;;;;761474;78;26300;-71
2022/04/20 03:45:08;;;;;;;16.82;12.90;;;;;;;;;;761650;78;26246;-74
2022/04/20 03:46:11;;;;;;;14.60;12.73;;;;;;;;;;761632;78;26738;-73
2022/04/20 03:49:12;;;;;;;14.95;13.10;;;;;;;;;;760765;78;26257;-72
2022/04/20 03:55:40;;;;;;;15.63;12.45;;;;;;;;;;760824;78;26167;-71
2022/04/20 03:58:04;;;;;;;16.95;13.53;;;;;;;;;;760852;78;26242;-71
2022/04/20 03:59:07;;;;;;;16.05;14.03;;;;;;;;;;760981;78;26242;-71
2022/04/20 04:00:10;;;;;;;14.90;13.22;;;;;;;;;;760887;77;26246;-72
2022/04/20 04:01:13;;;;;;;17.92;13.20;;;;;;;;;;760831;78;26246;-71
2022/04/20 04:02:17;;;;;;;16.55;13.22;;;;;;;;;;760785;78;26711;-71
2022/04/20 04:03:23;;;;;;;15.18;12.95;;;;;;;;;;760710;78;26242;-71
2022/04/20 04:04:26;;;;;;;17.32;13.25;;;;;;;;;;760822;77;26238;-72
2022/04/20 04:05:31;;;;;;;16.50;13.68;;;;;;;;;;760816;78;26308;-71
2022/04/20 04:08:36;;;;;;;16.02;12.40;;;;;;;;;;761008;78;26604;-74
2022/04/20 04:09:40;;;;;;;17.00;13.35;;;;;;;;;;760762;78;26695;-75
2022/04/20 04:10:43;;;;;;;17.92;12.43;;;;;;;;;;760711;78;26238;-73
2022/04/20 04:11:50;;;;;;;18.07;13.28;;;;;;;;;;760858;78;26308;-76
2022/04/20 04:12:58;;;;;;;17.10;14.53;;;;;;;;;;761216;78;26246;-75
2022/04/20 04:14:01;;;;;;;17.10;14.25;;;;;;;;;;761396;78;26238;-76
2022/04/20 04:15:07;;;;;;;17.45;14.43;;;;;;;;;;761495;78;26715;-76
2022/04/20 04:21:56;;;;;;;16.05;13.65;;;;;;;;;;761239;78;26144;-74
2022/04/20 04:23:00;;;;;;;15.03;13.25;;;;;;;;;;760940;78;26656;-76
2022/04/20 04:24:09;;;;;;;15.75;13.60;;;;;;;;;;760742;78;26238;-77
2022/04/20 04:32:23;;;;;;;15.23;13.62;;;;;;;;;;760909;78;26203;-75
2022/04/20 04:33:31;;;;;;;16.62;13.20;;;;;;;;;;760791;78;26292;-75
2022/04/20 04:34:53;;;;;;;16.70;14.30;;;;;;;;;;761000;78;26312;-73
2022/04/20 04:35:56;;;;;;;16.50;14.05;;;;;;;;;;760859;78;26230;-77
2022/04/20 04:42:43;;;;;;;16.30;13.15;;;;;;;;;;748932;79;26615;-73
2022/04/20 04:43:46;;;;;;;16.73;13.58;;;;;;;;;;748605;79;26264;-74
2022/04/20 04:44:49;;;;;;;17.52;14.38;;;;;;;;;;748733;79;26317;-74
2022/04/20 04:49:27;;;;;;;17.60;13.72;;;;;;;;;;709340;83;26351;-73
2022/04/20 04:50:29;;;;;;;23.52;14.18;;;;;;;;;;705035;80;26327;-74
2022/04/20 04:51:32;;;;;;;16.50;14.35;;;;;;;;;;775925;76;26334;-73
2022/04/20 04:52:35;;;;;;;16.77;14.18;;;;;;;;;;775916;76;26252;-73
2022/04/20 04:53:39;;;;;;;16.17;14.25;;;;;;;;;;775893;76;24743;-73
2022/04/20 04:54:44;;;;;;;16.23;14.00;;;;;;;;;;775862;74;26248;-73
2022/04/20 04:55:47;;;;;;;17.25;14.68;;;;;;;;;;775786;76;26720;-73
2022/04/20 04:58:47;;;;;;;17.12;13.75;;;;;;;;;;779852;76;26222;-74
2022/04/20 04:59:50;;;;;;;17.37;15.35;;;;;;;;;;779397;76;26702;-73
2022/04/20 05:00:54;;;;;;;22.05;15.75;;;;;;;;;;779972;76;26246;-73
2022/04/20 05:01:57;;;;;;;17.80;14.25;;;;;;;;;;779957;76;26666;-74
2022/04/20 05:03:00;;;;;;;17.12;15.13;;;;;;;;;;779924;76;26647;-74
2022/04/20 05:04:03;;;;;;;16.82;15.10;;;;;;;;;;780031;76;26245;-74
2022/04/20 05:05:06;;;;;;;19.52;15.32;;;;;;;;;;779955;76;26291;-72
2022/04/20 05:08:25;;;;;;;18.87;15.90;;;;;;;;;;761150;78;26262;-73
2022/04/20 05:09:28;;;;;;;18.90;15.30;;;;;;;;;;773254;76;26709;-72
2022/04/20 05:10:31;;;;;;;18.62;15.50;;;;;;;;;;773263;76;26252;-73
2022/04/20 05:11:34;;;;;;;20.17;15.80;;;;;;;;;;773209;76;26252;-73
2022/04/20 05:12:36;;;;;;;16.85;14.87;;;;;;;;;;773309;76;26248;-73
2022/04/20 05:18:53;;;;;;;15.72;14.03;;;;;;;;;;756646;78;26279;-74
2022/04/20 05:19:55;;;;;;;24.23;18.05;;;;;;;;;;775906;76;26256;-73
2022/04/20 05:20:58;;;;;;;22.40;17.65;;;;;;;;;;775835;76;26252;-73
2022/04/20 05:22:02;;;;;;;18.85;16.55;;;;;;;;;;775960;76;26751;-73
2022/04/20 05:23:06;;;;;;;18.00;15.68;;;;;;;;;;775906;76;26329;-74
2022/04/20 05:24:09;;;;;;;18.17;16.23;;;;;;;;;;775874;76;26779;-74
2022/04/20 05:25:11;;;;;;;19.52;15.65;;;;;;;;;;775906;76;26682;-74
2022/04/20 05:28:17;;;;;;;18.07;14.13;;;;;;;;;;776181;76;26204;-74
2022/04/20 05:42:22;;;;;;;22.73;17.70;;;;;;;;;;767937;77;26693;-73
2022/04/20 05:43:25;;;;;;;19.60;16.95;;;;;;;;;;767963;77;26341;-73
2022/04/20 05:48:27;;;;;;;19.75;16.42;;;;;;;;;;768421;77;26613;-72
2022/04/20 05:49:30;;;;;;;24.98;17.65;;;;;;;;;;794721;75;26204;-75
2022/04/20 05:50:35;;;;;;;20.12;15.85;;;;;;;;;;794735;75;26223;-72
2022/04/20 05:51:37;;;;;;;19.30;16.93;;;;;;;;;;794755;75;26219;-72
2022/04/20 05:52:41;;;;;;;21.65;17.67;;;;;;;;;;794590;74;26302;-74
2022/04/20 05:53:46;;;;;;;21.10;17.73;;;;;;;;;;794283;74;26230;-75
2022/04/20 05:54:49;;;;;;;20.25;17.12;;;;;;;;;;793851;75;26231;-73
2022/04/20 05:55:54;;;;;;;23.67;17.57;;;;;;;;;;793576;75;26238;-75
2022/04/20 05:59:03;;;;;;;21.95;17.35;;;;;;;;;;793412;75;26219;-75
2022/04/20 06:00:06;;;;;;;18.45;15.83;;;;;;;;;;793242;75;26249;-74
2022/04/20 06:01:14;;;;;;;19.35;16.37;;;;;;;;;;793340;75;26301;-74
2022/04/20 06:02:17;;;;;;;19.40;16.80;;;;;;;;;;793293;75;26297;-74
2022/04/20 06:03:20;;;;;;;17.90;15.75;;;;;;;;;;793308;75;26269;-75
2022/04/20 06:04:29;;;;;;;19.12;15.48;;;;;;;;;;793242;75;26236;-74
2022/04/20 06:15:19;;;;;;;17.73;15.65;;;;;;;;;;738891;80;26730;-74
2022/04/20 06:25:21;;;;;;;21.20;16.67;;;;;;;;;;731139;80;26232;-73
2022/04/20 06:28:19;;;;;;;21.30;17.20;;;;;;;;;;725285;82;26271;-74
2022/04/20 06:29:23;;;;;;;20.72;17.42;;;;;;;;;;725294;82;26813;-73
2022/04/20 06:30:29;;;;;;;22.42;17.07;;;;;;;;;;725371;82;26281;-74
2022/04/20 06:31:32;;;;;;;20.08;17.35;;;;;;;;;;725329;82;26298;-73
2022/04/20 06:32:36;;;;;;;20.37;17.75;;;;;;;;;;725375;82;26348;-74
2022/04/20 06:33:40;;;;;;;20.15;16.90;;;;;;;;;;759351;77;26744;-73
2022/04/20 06:34:49;;;;;;;22.67;16.95;;;;;;;;;;762215;78;26306;-74
2022/04/20 06:38:26;;;;;;;19.40;15.50;;;;;;;;;;762655;78;26169;-74
2022/04/20 06:39:34;;;;;;;19.50;15.75;;;;;;;;;;748731;79;26725;-74
2022/04/20 06:40:38;;;;;;;20.85;17.05;;;;;;;;;;748846;79;26337;-74
2022/04/20 06:41:42;;;;;;;18.32;16.42;;;;;;;;;;748748;79;26329;-73
2022/04/20 06:42:49;;;;;;;25.77;18.23;;;;;;;;;;748739;78;26283;-74
2022/04/20 06:43:54;;;;;;;24.50;18.07;;;;;;;;;;737421;80;26281;-74
2022/04/20 06:50:34;;;;;;;22.17;16.05;;;;;;;;;;756156;78;26223;-74
2022/04/20 06:59:39;;;;;;;20.88;16.37;;;;;;;;;;801442;74;26284;-74
2022/04/20 07:00:44;;;;;;;22.75;17.98;;;;;;;;;;789148;75;26308;-73
2022/04/20 07:01:52;;;;;;;22.02;18.52;;;;;;;;;;789927;74;26222;-73
2022/04/20 07:03:03;;;;;;;22.87;18.55;;;;;;;;;;788542;75;26238;-74
2022/04/20 07:09:22;;;;;;;21.42;16.70;;;;;;;;;;756529;78;26237;-73
2022/04/20 07:12:29;;;;;;;19.02;17.00;;;;;;;;;;757143;78;26726;-73
2022/04/20 07:13:33;;;;;;;23.45;18.85;;;;;;;;;;726074;81;26340;-74
2022/04/20 07:14:38;;;;;;;27.00;20.43;;;;;;;;;;733503;81;26728;-73
2022/04/20 07:17:58;;;;;;;24.70;19.95;;;;;;;;;;733907;81;26641;-75
2022/04/20 07:19:02;;;;;;;23.77;19.60;;;;;;;;;;761554;78;26689;-73
2022/04/20 07:20:07;;;;;;;23.05;18.57;;;;;;;;;;761664;78;26232;-74
2022/04/20 07:21:16;;;;;;;22.70;18.40;;;;;;;;;;761712;78;26216;-73
2022/04/20 07:22:25;;;;;;;21.50;18.52;;;;;;;;;;761862;78;26650;-73
2022/04/20 07:23:29;;;;;;;24.55;19.55;;;;;;;;;;761776;78;26755;-73
2022/04/20 07:24:34;;;;;;;19.98;17.82;;;;;;;;;;761878;77;26220;-74
2022/04/20 07:29:23;;;;;;;23.50;18.50;;;;;;;;;;748868;79;26712;-73
2022/04/20 07:30:32;;;;;;;22.58;18.73;;;;;;;;;;746754;79;26318;-74
2022/04/20 07:31:43;;;;;;;22.13;18.85;;;;;;;;;;748667;79;26777;-74
2022/04/20 07:32:50;;;;;;;22.87;19.32;;;;;;;;;;748866;79;26744;-74
2022/04/20 07:33:58;;;;;;;21.95;18.65;;;;;;;;;;748809;79;26343;-74
2022/04/20 07:35:02;;;;;;;20.50;18.30;;;;;;;;;;748821;79;26333;-73
2022/04/20 07:38:10;;;;;;;25.95;20.15;;;;;;;;;;749334;79;26196;-73
2022/04/20 07:39:15;;;;;;;26.50;18.50;;;;;;;;;;749205;79;26260;-74
2022/04/20 07:40:23;;;;;;;19.37;17.30;;;;;;;;;;749195;79;26728;-74
2022/04/20 07:41:26;;;;;;;22.30;18.12;;;;;;;;;;749486;79;26283;-74
2022/04/20 07:42:32;;;;;;;20.72;18.30;;;;;;;;;;748924;79;26267;-73
2022/04/20 07:43:37;;;;;;;20.40;17.07;;;;;;;;;;748849;79;26274;-74
2022/04/20 07:44:43;;;;;;;20.68;17.42;;;;;;;;;;748825;79;26341;-74
2022/04/20 07:50:57;;;;;;;20.68;16.85;;;;;;;;;;749414;79;26709;-74
2022/04/20 07:57:33;;;;;;;20.00;17.40;;;;;;;;;;749316;79;24225;-74
2022/04/20 07:58:36;;;;;;;20.85;17.02;;;;;;;;;;748833;79;26334;-74
2022/04/20 07:59:38;;;;;;;19.73;17.05;;;;;;;;;;748829;79;26268;-74
2022/04/20 08:02:45;;;;;;;22.27;18.80;;;;;;;;;;749192;79;26193;-74
2022/04/20 08:03:50;;;;;;;19.23;16.87;;;;;;;;;;748970;79;26268;-74
2022/04/20 08:04:52;;;;;;;23.55;19.82;;;;;;;;;;749052;79;26267;-74
2022/04/20 08:09:37;;;;;;;23.62;19.48;;;;;;;;;;748890;79;26196;-76
2022/04/20 08:10:41;;;;;;;22.95;19.27;;;;;;;;;;749252;79;26329;-74
2022/04/20 08:11:44;;;;;;;24.05;18.62;;;;;;;;;;749147;79;26380;-74
2022/04/20 08:12:47;;;;;;;19.32;16.73;;;;;;;;;;749107;79;26788;-75
2022/04/20 08:18:53;;;;;;;19.05;15.50;;;;;;;;;;748856;79;26201;-71
2022/04/20 08:19:56;;;;;;;19.52;16.17;;;;;;;;;;748788;79;26276;-72
2022/04/20 08:20:59;;;;;;;18.92;16.07;;;;;;;;;;748817;79;26776;-73
2022/04/20 08:22:02;;;;;;;17.12;15.28;;;;;;;;;;748745;79;26806;-73
2022/04/20 08:23:05;;;;;;;17.75;15.60;;;;;;;;;;748804;79;26268;-73
2022/04/20 08:24:08;;;;;;;17.20;15.40;;;;;;;;;;748802;79;26840;-73
2022/04/20 08:29:09;;;;;;;21.00;16.40;;;;;;;;;;749061;79;26200;-73
2022/04/20 08:30:09;;;;;;;16.25;14.55;;;;;;;;;;748859;78;26720;-73
2022/04/20 08:31:15;;;;;;;20.32;15.75;;;;;;;;;;748885;79;26856;-74
2022/04/20 08:32:17;;;;;;;18.32;16.42;;;;;;;;;;748804;79;26272;-73
2022/04/20 08:33:21;;;;;;;18.75;15.95;;;;;;;;;;748769;79;24682;-73
2022/04/20 08:34:24;;;;;;;20.60;16.27;;;;;;;;;;755842;77;26266;-73
2022/04/20 08:37:26;;;;;;;16.45;14.68;;;;;;;;;;767219;77;26282;-72
2022/04/20 08:38:29;;;;;;;21.23;17.32;;;;;;;;;;767185;77;26247;-73
2022/04/20 08:49:08;;;;;;;19.12;16.50;;;;;;;;;;754653;78;26259;-72
2022/04/20 08:50:11;;;;;;;19.25;16.23;;;;;;;;;;754666;78;26700;-72
2022/04/20 08:51:14;;;;;;;21.23;17.92;;;;;;;;;;754623;78;26260;-73
2022/04/20 08:53:40;;;;;;;19.77;16.70;;;;;;;;;;755000;78;26271;-73
2022/04/20 08:54:43;;;;;;;21.15;18.50;;;;;;;;;;755560;78;26763;-72
2022/04/20 08:57:35;;;;;;;21.95;17.75;;;;;;;;;;775872;76;26245;-72
2022/04/20 08:58:40;;;;;;;22.58;18.20;;;;;;;;;;775895;76;26307;-73
2022/04/20 08:59:48;;;;;;;21.95;19.00;;;;;;;;;;775906;76;26302;-72
2022/04/20 09:00:51;;;;;;;24.18;19.90;;;;;;;;;;775647;76;26689;-73
2022/04/20 09:01:54;;;;;;;26.55;20.65;;;;;;;;;;775931;76;26338;-73
2022/04/20 09:03:00;;;;;;;25.92;21.17;;;;;;;;;;775999;76;26244;-73
2022/04/20 09:04:05;;;;;;;25.80;20.27;;;;;;;;;;776024;76;26249;-73
2022/04/20 09:06:46;;;;;;;26.65;19.80;;;;;;;;;;776175;76;26143;-73
2022/04/20 09:07:49;;;;;;;23.35;19.27;;;;;;;;;;789465;75;26286;-73
2022/04/20 09:08:52;;;;;;;23.02;19.55;;;;;;;;;;789605;75;26274;-73
2022/04/20 09:09:55;;;;;;;27.98;20.65;;;;;;;;;;789521;75;26240;-72
2022/04/20 09:10:58;;;;;;;27.67;21.15;;;;;;;;;;789299;75;26294;-74
2022/04/20 09:12:01;;;;;;;26.42;21.35;;;;;;;;;;789510;75;26224;-73
2022/04/20 09:13:05;;;;;;;29.18;21.12;;;;;;;;;;789288;75;26654;-73
2022/04/20 09:14:14;;;;;;;26.10;20.80;;;;;;;;;;789241;75;26694;-72
2022/04/20 09:18:44;;;;;;;27.73;21.23;;;;;;;;;;775786;76;26181;-73
2022/04/20 09:19:55;;;;;;;30.20;23.35;;;;;;;;;;775508;76;26244;-72
2022/04/20 09:21:10;;;;;;;32.00;23.62;;;;;;;;;;774943;76;26800;-72
2022/04/20 09:22:15;;;;;;;29.27;23.10;;;;;;;;;;775143;76;26780;-72
2022/04/20 09:23:18;;;;;;;31.25;22.82;;;;;;;;;;775028;76;26318;-73
2022/04/20 09:24:21;;;;;;;30.57;22.65;;;;;;;;;;775273;76;26229;-72
2022/04/20 09:34:06;;;;;;;26.12;21.40;;;;;;;;;;789346;75;26166;-73
2022/04/20 09:37:11;;;;;;;26.48;20.65;;;;;;;;;;789436;75;26228;-73
2022/04/20 09:38:16;;;;;;;23.02;19.10;;;;;;;;;;789174;75;26296;-73
2022/04/20 09:39:19;;;;;;;21.62;18.82;;;;;;;;;;789326;75;26291;-74
2022/04/20 09:40:23;;;;;;;22.65;18.87;;;;;;;;;;789188;75;26229;-73
2022/04/20 09:41:26;;;;;;;22.50;18.95;;;;;;;;;;787796;75;26261;-73
2022/04/20 09:42:30;;;;;;;24.45;18.45;;;;;;;;;;789241;75;26699;-74
2022/04/20 09:43:32;;;;;;;20.97;18.25;;;;;;;;;;789284;75;26318;-73
2022/04/20 09:44:39;;;;;;;22.75;18.17;;;;;;;;;;789227;75;26244;-75
2022/04/20 09:51:10;;;;;;;19.82;17.07;;;;;;;;;;775783;76;26261;-74
2022/04/20 09:52:13;;;;;;;19.07;15.63;;;;;;;;;;775953;76;26250;-72
2022/04/20 09:53:16;;;;;;;21.07;16.95;;;;;;;;;;775819;76;26313;-71
2022/04/20 09:54:29;;;;;;;20.40;16.80;;;;;;;;;;776247;76;26254;-76
2022/04/20 09:57:12;;;;;;;19.77;16.57;;;;;;;;;;743195;77;26395;-71
2022/04/20 09:58:19;;;;;;;18.45;15.85;;;;;;;;;;742585;79;26289;-73
2022/04/20 09:59:22;;;;;;;19.02;16.48;;;;;;;;;;756170;77;26321;-74
2022/04/20 10:00:25;;;;;;;18.55;16.05;;;;;;;;;;767541;77;26725;-73
2022/04/20 10:01:35;;;;;;;21.82;16.27;;;;;;;;;;767571;77;26287;-74
2022/04/20 10:02:42;;;;;;;19.15;16.75;;;;;;;;;;767557;77;26272;-74
2022/04/20 10:03:46;;;;;;;19.85;16.07;;;;;;;;;;767552;77;26267;-74
2022/04/20 10:06:46;;;;;;;19.75;16.57;;;;;;;;;;731490;79;26282;-75
2022/04/20 10:07:58;;;;;;;18.85;16.73;;;;;;;;;;731544;81;26391;-74
2022/04/20 10:08:59;;;;;;;18.35;16.45;;;;;;;;;;730643;81;26305;-75
2022/04/20 10:10:02;;;;;;;23.35;17.67;;;;;;;;;;733028;80;26837;-75
2022/04/20 10:11:05;;;;;;;20.45;16.70;;;;;;;;;;739360;79;26335;-72
2022/04/20 10:12:08;;;;;;;18.85;16.40;;;;;;;;;;746679;79;26315;-71
2022/04/20 10:13:11;;;;;;;20.43;16.97;;;;;;;;;;746697;79;26726;-71
2022/04/20 10:19:40;;;;;;;21.48;16.65;;;;;;;;;;772100;77;26155;-72
2022/04/20 10:20:46;;;;;;;20.70;17.30;;;;;;;;;;771981;77;26296;-72
2022/04/20 10:21:53;;;;;;;20.05;17.05;;;;;;;;;;771958;77;26683;-73
2022/04/20 10:23:00;;;;;;;19.80;16.30;;;;;;;;;;771960;77;26253;-71
2022/04/20 10:24:24;;;;;;;20.82;16.90;;;;;;;;;;776280;75;26285;-75
2022/04/20 10:27:45;;;;;;;17.45;14.75;;;;;;;;;;771826;77;26227;-72
2022/04/20 10:29:01;;;;;;;21.10;16.37;;;;;;;;;;771973;76;26326;-73
2022/04/20 10:30:07;;;;;;;18.62;15.63;;;;;;;;;;770714;76;26264;-74
2022/04/20 10:31:12;;;;;;;18.80;16.48;;;;;;;;;;771074;76;26244;-72
2022/04/20 10:32:22;;;;;;;20.50;16.50;;;;;;;;;;770816;76;26705;-72
2022/04/20 10:33:26;;;;;;;18.37;16.42;;;;;;;;;;745022;79;26363;-74
2022/04/20 10:38:23;;;;;;;17.48;15.45;;;;;;;;;;749480;79;26697;-72
2022/04/20 10:39:29;;;;;;;16.97;15.18;;;;;;;;;;749499;79;26252;-73
2022/04/20 10:40:33;;;;;;;17.02;15.23;;;;;;;;;;749669;78;26312;-73
2022/04/20 10:41:37;;;;;;;18.23;15.78;;;;;;;;;;746069;79;26315;-73
2022/04/20 10:46:30;;;;;;;20.50;16.12;;;;;;;;;;771606;77;26269;-72
2022/04/20 10:47:35;;;;;;;17.75;15.05;;;;;;;;;;745394;79;26266;-73
2022/04/20 10:48:43;;;;;;;19.45;16.15;;;;;;;;;;759430;78;26244;-73
2022/04/20 10:49:46;;;;;;;20.43;17.20;;;;;;;;;;769748;76;26288;-72
2022/04/20 10:50:50;;;;;;;18.48;16.20;;;;;;;;;;745146;79;26267;-74
2022/04/20 10:51:53;;;;;;;20.30;16.50;;;;;;;;;;762037;77;26240;-74
2022/04/20 10:53:08;;;;;;;19.85;17.27;;;;;;;;;;771100;77;26250;-73
2022/04/20 10:57:34;;;;;;;22.35;16.12;;;;;;;;;;758229;78;26194;-73
2022/04/20 10:58:38;;;;;;;23.83;17.60;;;;;;;;;;758024;78;26272;-73
2022/04/20 10:59:41;;;;;;;24.77;16.77;;;;;;;;;;757985;78;26259;-74
2022/04/20 11:00:45;;;;;;;22.75;17.17;;;;;;;;;;757996;78;26341;-73
2022/04/20 11:09:00;;;;;;;16.02;14.43;;;;;;;;;;732809;80;26267;-73
2022/04/20 11:10:05;;;;;;;15.40;13.80;;;;;;;;;;756959;78;26708;-72
2022/04/20 11:18:40;;;;;;;17.75;15.35;;;;;;;;;;719315;80;26869;-72
2022/04/20 11:19:45;;;;;;;16.15;14.38;;;;;;;;;;746336;79;26362;-73